sensor_id;sensor_type;location;lat;lon;timestamp;temperature;humidity
20398;DHT22;10358;49.590;11.030;2023-02-28T00:00:34;-2.00;99.90
20398;DHT22;10358;49.590;11.030;2023-02-28T00:02:59;-2.10;99.90
20398;DHT22;10358;49.590;11.030;2023-02-28T00:05:26;-2.00;99.90
20398;DHT22;10358;49.590;11.030;2023-02-28T00:07:52;-2.00;99.90
20398;DHT22;10358;49.590;11.030;2023-02-28T00:10:23;-2.00;99.90
20398;DHT22;10358;49.590;11.030;2023-02-28T00:12:50;-2.00;99.90
20398;DHT22;10358;49.590;11.030;2023-02-28T00:15:17;-2.00;99.90
20398;DHT22;10358;49.590;11.030;2023-02-28T00:17:42;-2.00;99.90
20398;DHT22;10358;49.590;11.030;2023-02-28T00:20:09;-2.00;99.90
20398;DHT22;10358;49.590;11.030;2023-02-28T00:22:36;-2.10;99.90
20398;DHT22;10358;49.590;11.030;2023-02-28T00:25:02;-2.00;99.90
20398;DHT22;10358;49.590;11.030;2023-02-28T00:27:29;-2.00;99.90
20398;DHT22;10358;49.590;11.030;2023-02-28T00:29:54;-2.00;99.90
20398;DHT22;10358;49.590;11.030;2023-02-28T00:32:20;-2.10;99.90
20398;DHT22;10358;49.590;11.030;2023-02-28T00:34:45;-2.10;99.90
20398;DHT22;10358;49.590;11.030;2023-02-28T00:37:11;-2.00;99.90
20398;DHT22;10358;49.590;11.030;2023-02-28T00:39:40;-2.00;99.90
20398;DHT22;10358;49.590;11.030;2023-02-28T00:42:07;-2.00;99.90
20398;DHT22;10358;49.590;11.030;2023-02-28T00:44:33;-2.00;99.90
20398;DHT22;10358;49.590;11.030;2023-02-28T00:46:59;-1.90;99.90
20398;DHT22;10358;49.590;11.030;2023-02-28T00:49:26;-1.90;99.90
20398;DHT22;10358;49.590;11.030;2023-02-28T00:51:52;-1.90;99.90
20398;DHT22;10358;49.590;11.030;2023-02-28T00:54:18;-1.90;99.90
20398;DHT22;10358;49.590;11.030;2023-02-28T00:56:44;-1.90;99.90
20398;DHT22;10358;49.590;11.030;2023-02-28T00:59:11;-1.90;99.90
20398;DHT22;10358;49.590;11.030;2023-02-28T01:01:37;-1.90;99.90
20398;DHT22;10358;49.590;11.030;2023-02-28T01:04:03;-1.90;99.90
20398;DHT22;10358;49.590;11.030;2023-02-28T01:06:28;-1.90;99.90
20398;DHT22;10358;49.590;11.030;2023-02-28T01:08:54;-1.90;99.90
20398;DHT22;10358;49.590;11.030;2023-02-28T01:11:19;-1.90;99.90
20398;DHT22;10358;49.590;11.030;2023-02-28T01:13:46;-1.90;99.90
20398;DHT22;10358;49.590;11.030;2023-02-28T01:16:12;-2.00;99.90
20398;DHT22;10358;49.590;11.030;2023-02-28T01:18:38;-2.00;99.90
20398;DHT22;10358;49.590;11.030;2023-02-28T01:21:05;-2.10;99.90
20398;DHT22;10358;49.590;11.030;2023-02-28T01:23:31;-2.10;99.90
20398;DHT22;10358;49.590;11.030;2023-02-28T01:26:06;-2.10;99.90
20398;DHT22;10358;49.590;11.030;2023-02-28T01:28:32;-2.10;99.90
20398;DHT22;10358;49.590;11.030;2023-02-28T01:30:58;-2.10;99.90
20398;DHT22;10358;49.590;11.030;2023-02-28T01:33:23;-2.10;99.90
20398;DHT22;10358;49.590;11.030;2023-02-28T01:35:49;-2.10;99.90
20398;DHT22;10358;49.590;11.030;2023-02-28T01:38:15;-2.20;99.90
20398;DHT22;10358;49.590;11.030;2023-02-28T01:40:40;-2.20;99.90
20398;DHT22;10358;49.590;11.030;2023-02-28T01:43:20;-2.20;99.90
20398;DHT22;10358;49.590;11.030;2023-02-28T01:45:46;-2.30;99.90
20398;DHT22;10358;49.590;11.030;2023-02-28T01:48:12;-2.20;99.90
20398;DHT22;10358;49.590;11.030;2023-02-28T01:50:41;-2.20;99.90
20398;DHT22;10358;49.590;11.030;2023-02-28T01:53:14;-2.20;99.90
20398;DHT22;10358;49.590;11.030;2023-02-28T01:55:43;-2.20;99.90
20398;DHT22;10358;49.590;11.030;2023-02-28T01:58:10;-2.20;99.90
20398;DHT22;10358;49.590;11.030;2023-02-28T02:00:36;-2.30;99.90
20398;DHT22;10358;49.590;11.030;2023-02-28T02:03:08;-2.30;99.90
20398;DHT22;10358;49.590;11.030;2023-02-28T02:05:37;-2.30;99.90
20398;DHT22;10358;49.590;11.030;2023-02-28T02:08:06;-2.30;99.90
20398;DHT22;10358;49.590;11.030;2023-02-28T02:10:39;-2.30;99.90
20398;DHT22;10358;49.590;11.030;2023-02-28T02:21:47;-2.30;99.90
20398;DHT22;10358;49.590;11.030;2023-02-28T02:30:37;-2.30;99.90
20398;DHT22;10358;49.590;11.030;2023-02-28T02:36:16;-2.20;99.90
20398;DHT22;10358;49.590;11.030;2023-02-28T02:39:04;-2.20;99.90
20398;DHT22;10358;49.590;11.030;2023-02-28T02:41:47;-2.20;99.90
20398;DHT22;10358;49.590;11.030;2023-02-28T02:44:21;-2.20;99.90
20398;DHT22;10358;49.590;11.030;2023-02-28T02:46:49;-2.20;99.90
20398;DHT22;10358;49.590;11.030;2023-02-28T02:49:30;-2.30;99.90
20398;DHT22;10358;49.590;11.030;2023-02-28T02:51:58;-2.20;99.90
20398;DHT22;10358;49.590;11.030;2023-02-28T02:54:37;-2.20;99.90
20398;DHT22;10358;49.590;11.030;2023-02-28T02:57:07;-2.20;99.90
20398;DHT22;10358;49.590;11.030;2023-02-28T02:59:35;-2.20;99.90
20398;DHT22;10358;49.590;11.030;2023-02-28T03:02:04;-2.20;99.90
20398;DHT22;10358;49.590;11.030;2023-02-28T03:10:52;-2.20;99.90
20398;DHT22;10358;49.590;11.030;2023-02-28T03:13:44;-2.20;99.90
20398;DHT22;10358;49.590;11.030;2023-02-28T03:16:32;-2.20;99.90
20398;DHT22;10358;49.590;11.030;2023-02-28T03:24:57;-2.10;99.90
20398;DHT22;10358;49.590;11.030;2023-02-28T03:30:18;-2.20;99.90
20398;DHT22;10358;49.590;11.030;2023-02-28T03:35:45;-2.20;99.90
20398;DHT22;10358;49.590;11.030;2023-02-28T03:40:45;-2.10;99.90
20398;DHT22;10358;49.590;11.030;2023-02-28T03:43:18;-2.20;99.90
20398;DHT22;10358;49.590;11.030;2023-02-28T03:45:45;-2.20;99.90
20398;DHT22;10358;49.590;11.030;2023-02-28T03:48:18;-2.20;99.90
20398;DHT22;10358;49.590;11.030;2023-02-28T03:50:48;-2.10;99.90
20398;DHT22;10358;49.590;11.030;2023-02-28T03:53:30;-2.20;99.90
20398;DHT22;10358;49.590;11.030;2023-02-28T03:56:19;-2.20;99.90
20398;DHT22;10358;49.590;11.030;2023-02-28T03:58:57;-2.20;99.90
20398;DHT22;10358;49.590;11.030;2023-02-28T04:04:59;-2.30;99.90
20398;DHT22;10358;49.590;11.030;2023-02-28T04:07:29;-2.30;99.90
20398;DHT22;10358;49.590;11.030;2023-02-28T04:09:54;-2.30;99.90
20398;DHT22;10358;49.590;11.030;2023-02-28T04:12:20;-2.30;99.90
20398;DHT22;10358;49.590;11.030;2023-02-28T04:14:48;-2.30;99.90
20398;DHT22;10358;49.590;11.030;2023-02-28T04:17:14;-2.30;99.90
20398;DHT22;10358;49.590;11.030;2023-02-28T04:19:40;-2.30;99.90
20398;DHT22;10358;49.590;11.030;2023-02-28T04:22:05;-2.30;99.90
20398;DHT22;10358;49.590;11.030;2023-02-28T04:24:31;-2.40;99.90
20398;DHT22;10358;49.590;11.030;2023-02-28T04:26:57;-2.40;99.90
20398;DHT22;10358;49.590;11.030;2023-02-28T04:29:32;-2.40;99.90
20398;DHT22;10358;49.590;11.030;2023-02-28T04:31:59;-2.40;99.90
20398;DHT22;10358;49.590;11.030;2023-02-28T04:34:26;-2.30;99.90
20398;DHT22;10358;49.590;11.030;2023-02-28T04:36:52;-2.30;99.90
20398;DHT22;10358;49.590;11.030;2023-02-28T04:39:21;-2.30;99.90
20398;DHT22;10358;49.590;11.030;2023-02-28T04:41:46;-2.30;99.90
20398;DHT22;10358;49.590;11.030;2023-02-28T04:44:12;-2.30;99.90
20398;DHT22;10358;49.590;11.030;2023-02-28T04:46:38;-2.40;99.90
20398;DHT22;10358;49.590;11.030;2023-02-28T04:49:03;-2.40;99.90
20398;DHT22;10358;49.590;11.030;2023-02-28T04:51:29;-2.40;99.90
20398;DHT22;10358;49.590;11.030;2023-02-28T04:53:55;-2.40;99.90
20398;DHT22;10358;49.590;11.030;2023-02-28T04:56:21;-2.40;99.90
20398;DHT22;10358;49.590;11.030;2023-02-28T04:58:48;-2.40;99.90
20398;DHT22;10358;49.590;11.030;2023-02-28T05:03:44;-2.30;99.90
20398;DHT22;10358;49.590;11.030;2023-02-28T05:06:11;-2.30;99.90
20398;DHT22;10358;49.590;11.030;2023-02-28T05:08:37;-2.30;99.90
20398;DHT22;10358;49.590;11.030;2023-02-28T05:11:03;-2.30;99.90
20398;DHT22;10358;49.590;11.030;2023-02-28T05:13:29;-2.30;99.90
20398;DHT22;10358;49.590;11.030;2023-02-28T05:15:55;-2.30;99.90
20398;DHT22;10358;49.590;11.030;2023-02-28T05:18:21;-2.30;99.90
20398;DHT22;10358;49.590;11.030;2023-02-28T05:20:46;-2.30;99.90
20398;DHT22;10358;49.590;11.030;2023-02-28T05:23:13;-2.30;99.90
20398;DHT22;10358;49.590;11.030;2023-02-28T05:25:40;-2.30;99.90
20398;DHT22;10358;49.590;11.030;2023-02-28T05:28:06;-2.20;99.90
20398;DHT22;10358;49.590;11.030;2023-02-28T05:30:32;-2.20;99.90
20398;DHT22;10358;49.590;11.030;2023-02-28T05:32:58;-2.20;99.90
20398;DHT22;10358;49.590;11.030;2023-02-28T05:35:26;-2.20;99.90
20398;DHT22;10358;49.590;11.030;2023-02-28T05:37:52;-2.20;99.90
20398;DHT22;10358;49.590;11.030;2023-02-28T05:40:18;-2.20;99.90
20398;DHT22;10358;49.590;11.030;2023-02-28T05:42:45;-2.20;99.90
20398;DHT22;10358;49.590;11.030;2023-02-28T05:45:11;-2.20;99.90
20398;DHT22;10358;49.590;11.030;2023-02-28T05:47:37;-2.20;99.90
20398;DHT22;10358;49.590;11.030;2023-02-28T05:50:04;-2.20;99.90
20398;DHT22;10358;49.590;11.030;2023-02-28T05:52:29;-2.20;99.90
20398;DHT22;10358;49.590;11.030;2023-02-28T05:54:55;-2.20;99.90
20398;DHT22;10358;49.590;11.030;2023-02-28T05:57:21;-2.20;99.90
20398;DHT22;10358;49.590;11.030;2023-02-28T05:59:47;-2.20;99.90
20398;DHT22;10358;49.590;11.030;2023-02-28T06:02:14;-2.30;99.90
20398;DHT22;10358;49.590;11.030;2023-02-28T06:04:41;-2.20;99.90
20398;DHT22;10358;49.590;11.030;2023-02-28T06:07:08;-2.20;99.90
20398;DHT22;10358;49.590;11.030;2023-02-28T06:09:33;-2.30;99.90
20398;DHT22;10358;49.590;11.030;2023-02-28T06:12:00;-2.20;99.90
20398;DHT22;10358;49.590;11.030;2023-02-28T06:14:27;-2.20;99.90
20398;DHT22;10358;49.590;11.030;2023-02-28T06:16:52;-2.20;99.90
20398;DHT22;10358;49.590;11.030;2023-02-28T06:19:18;-2.20;99.90
20398;DHT22;10358;49.590;11.030;2023-02-28T06:21:44;-2.20;99.90
20398;DHT22;10358;49.590;11.030;2023-02-28T06:24:10;-2.20;99.90
20398;DHT22;10358;49.590;11.030;2023-02-28T06:26:35;-2.20;99.90
20398;DHT22;10358;49.590;11.030;2023-02-28T06:29:01;-2.30;99.90
20398;DHT22;10358;49.590;11.030;2023-02-28T06:31:28;-2.30;99.90
20398;DHT22;10358;49.590;11.030;2023-02-28T06:33:54;-2.30;99.90
20398;DHT22;10358;49.590;11.030;2023-02-28T06:36:20;-2.20;99.90
20398;DHT22;10358;49.590;11.030;2023-02-28T06:38:46;-2.20;99.90
20398;DHT22;10358;49.590;11.030;2023-02-28T06:41:16;-2.20;99.90
20398;DHT22;10358;49.590;11.030;2023-02-28T06:43:42;-2.20;99.90
20398;DHT22;10358;49.590;11.030;2023-02-28T06:46:11;-2.20;99.90
20398;DHT22;10358;49.590;11.030;2023-02-28T06:48:37;-2.10;99.90
20398;DHT22;10358;49.590;11.030;2023-02-28T06:51:10;-2.10;99.90
20398;DHT22;10358;49.590;11.030;2023-02-28T06:53:36;-2.10;99.90
20398;DHT22;10358;49.590;11.030;2023-02-28T06:56:11;-2.00;99.90
20398;DHT22;10358;49.590;11.030;2023-02-28T06:58:37;-2.00;99.90
20398;DHT22;10358;49.590;11.030;2023-02-28T07:01:05;-1.90;99.90
20398;DHT22;10358;49.590;11.030;2023-02-28T07:03:31;-1.90;99.90
20398;DHT22;10358;49.590;11.030;2023-02-28T07:05:57;-1.80;99.90
20398;DHT22;10358;49.590;11.030;2023-02-28T07:08:23;-1.80;99.90
20398;DHT22;10358;49.590;11.030;2023-02-28T07:10:55;-1.80;99.90
20398;DHT22;10358;49.590;11.030;2023-02-28T07:13:21;-1.70;99.90
20398;DHT22;10358;49.590;11.030;2023-02-28T07:15:55;-1.60;99.90
20398;DHT22;10358;49.590;11.030;2023-02-28T07:18:20;-1.50;99.90
20398;DHT22;10358;49.590;11.030;2023-02-28T07:20:46;-1.50;99.90
20398;DHT22;10358;49.590;11.030;2023-02-28T07:23:11;-1.50;99.90
20398;DHT22;10358;49.590;11.030;2023-02-28T07:25:37;-1.40;99.90
20398;DHT22;10358;49.590;11.030;2023-02-28T07:28:03;-1.30;99.90
20398;DHT22;10358;49.590;11.030;2023-02-28T07:30:28;-1.20;99.90
20398;DHT22;10358;49.590;11.030;2023-02-28T07:32:54;-1.20;99.90
20398;DHT22;10358;49.590;11.030;2023-02-28T07:35:21;-1.10;99.90
20398;DHT22;10358;49.590;11.030;2023-02-28T07:37:47;-1.00;99.90
20398;DHT22;10358;49.590;11.030;2023-02-28T07:40:13;-1.00;99.90
20398;DHT22;10358;49.590;11.030;2023-02-28T07:42:39;-0.80;99.90
20398;DHT22;10358;49.590;11.030;2023-02-28T07:45:06;-0.70;99.90
20398;DHT22;10358;49.590;11.030;2023-02-28T07:47:32;-0.50;99.90
20398;DHT22;10358;49.590;11.030;2023-02-28T07:49:58;-0.40;99.90
20398;DHT22;10358;49.590;11.030;2023-02-28T07:52:24;-0.30;99.90
20398;DHT22;10358;49.590;11.030;2023-02-28T07:54:50;-0.20;99.90
20398;DHT22;10358;49.590;11.030;2023-02-28T07:57:15;-0.10;99.90
20398;DHT22;10358;49.590;11.030;2023-02-28T07:59:41;0.00;99.90
20398;DHT22;10358;49.590;11.030;2023-02-28T08:02:09;0.20;99.90
20398;DHT22;10358;49.590;11.030;2023-02-28T08:04:36;0.20;99.90
20398;DHT22;10358;49.590;11.030;2023-02-28T08:07:02;0.30;99.90
20398;DHT22;10358;49.590;11.030;2023-02-28T08:09:27;0.40;99.90
20398;DHT22;10358;49.590;11.030;2023-02-28T08:11:55;0.50;99.90
20398;DHT22;10358;49.590;11.030;2023-02-28T08:14:20;0.60;99.90
20398;DHT22;10358;49.590;11.030;2023-02-28T08:16:46;0.70;99.90
20398;DHT22;10358;49.590;11.030;2023-02-28T08:19:11;0.70;99.90
20398;DHT22;10358;49.590;11.030;2023-02-28T08:21:37;0.90;99.90
20398;DHT22;10358;49.590;11.030;2023-02-28T08:24:02;1.00;99.90
20398;DHT22;10358;49.590;11.030;2023-02-28T08:26:28;1.10;99.90
20398;DHT22;10358;49.590;11.030;2023-02-28T08:28:53;1.20;99.50
20398;DHT22;10358;49.590;11.030;2023-02-28T08:31:19;1.30;98.10
20398;DHT22;10358;49.590;11.030;2023-02-28T08:33:45;1.30;96.50
20398;DHT22;10358;49.590;11.030;2023-02-28T08:36:12;1.20;96.30
20398;DHT22;10358;49.590;11.030;2023-02-28T08:38:38;1.20;95.50
20398;DHT22;10358;49.590;11.030;2023-02-28T08:41:06;1.20;95.40
20398;DHT22;10358;49.590;11.030;2023-02-28T08:43:33;1.30;95.00
20398;DHT22;10358;49.590;11.030;2023-02-28T08:45:58;1.50;94.10
20398;DHT22;10358;49.590;11.030;2023-02-28T08:48:26;1.50;93.60
20398;DHT22;10358;49.590;11.030;2023-02-28T08:50:57;1.60;93.70
20398;DHT22;10358;49.590;11.030;2023-02-28T08:53:23;1.60;92.60
20398;DHT22;10358;49.590;11.030;2023-02-28T08:55:58;1.60;93.20
20398;DHT22;10358;49.590;11.030;2023-02-28T08:58:25;1.70;92.30
20398;DHT22;10358;49.590;11.030;2023-02-28T09:00:51;1.80;92.10
20398;DHT22;10358;49.590;11.030;2023-02-28T09:03:16;1.80;91.20
20398;DHT22;10358;49.590;11.030;2023-02-28T09:05:59;1.80;90.40
20398;DHT22;10358;49.590;11.030;2023-02-28T09:08:26;1.90;90.10
20398;DHT22;10358;49.590;11.030;2023-02-28T09:10:52;1.80;89.40
20398;DHT22;10358;49.590;11.030;2023-02-28T09:13:19;1.90;89.20
20398;DHT22;10358;49.590;11.030;2023-02-28T09:15:45;1.90;88.00
20398;DHT22;10358;49.590;11.030;2023-02-28T09:18:11;1.90;88.60
20398;DHT22;10358;49.590;11.030;2023-02-28T09:20:38;2.10;88.00
20398;DHT22;10358;49.590;11.030;2023-02-28T09:23:05;2.10;86.60
20398;DHT22;10358;49.590;11.030;2023-02-28T09:25:30;2.30;86.10
20398;DHT22;10358;49.590;11.030;2023-02-28T09:27:56;2.30;83.70
20398;DHT22;10358;49.590;11.030;2023-02-28T09:30:21;2.30;84.30
20398;DHT22;10358;49.590;11.030;2023-02-28T09:32:47;2.30;84.20
20398;DHT22;10358;49.590;11.030;2023-02-28T09:35:17;2.30;82.50
20398;DHT22;10358;49.590;11.030;2023-02-28T09:37:43;2.30;82.50
20398;DHT22;10358;49.590;11.030;2023-02-28T09:40:10;2.30;82.10
20398;DHT22;10358;49.590;11.030;2023-02-28T09:42:36;2.40;80.70
20398;DHT22;10358;49.590;11.030;2023-02-28T09:45:06;2.30;79.70
20398;DHT22;10358;49.590;11.030;2023-02-28T09:47:41;2.20;80.40
20398;DHT22;10358;49.590;11.030;2023-02-28T09:52:45;2.40;80.10
20398;DHT22;10358;49.590;11.030;2023-02-28T09:55:24;2.50;78.50
20398;DHT22;10358;49.590;11.030;2023-02-28T09:57:51;2.60;79.00
20398;DHT22;10358;49.590;11.030;2023-02-28T10:00:21;2.80;77.70
20398;DHT22;10358;49.590;11.030;2023-02-28T10:06:26;3.00;76.10
20398;DHT22;10358;49.590;11.030;2023-02-28T10:11:10;3.20;73.20
20398;DHT22;10358;49.590;11.030;2023-02-28T10:13:56;3.30;72.20
20398;DHT22;10358;49.590;11.030;2023-02-28T10:16:46;3.20;72.40
20398;DHT22;10358;49.590;11.030;2023-02-28T10:19:24;3.30;72.30
20398;DHT22;10358;49.590;11.030;2023-02-28T10:25:22;3.50;72.10
20398;DHT22;10358;49.590;11.030;2023-02-28T10:27:50;3.50;70.20
20398;DHT22;10358;49.590;11.030;2023-02-28T10:30:18;3.50;69.80
20398;DHT22;10358;49.590;11.030;2023-02-28T10:32:51;3.60;69.90
20398;DHT22;10358;49.590;11.030;2023-02-28T10:35:21;3.70;69.90
20398;DHT22;10358;49.590;11.030;2023-02-28T10:37:54;3.70;69.40
20398;DHT22;10358;49.590;11.030;2023-02-28T10:42:56;3.80;68.80
20398;DHT22;10358;49.590;11.030;2023-02-28T10:45:22;3.80;68.00
20398;DHT22;10358;49.590;11.030;2023-02-28T10:50:44;3.90;67.90
20398;DHT22;10358;49.590;11.030;2023-02-28T10:56:04;3.90;68.30
20398;DHT22;10358;49.590;11.030;2023-02-28T10:58:40;4.00;67.70
20398;DHT22;10358;49.590;11.030;2023-02-28T11:01:13;4.20;67.10
20398;DHT22;10358;49.590;11.030;2023-02-28T11:03:39;4.20;66.90
20398;DHT22;10358;49.590;11.030;2023-02-28T11:06:15;4.20;66.00
20398;DHT22;10358;49.590;11.030;2023-02-28T11:09:04;4.30;65.70
20398;DHT22;10358;49.590;11.030;2023-02-28T11:11:43;4.40;65.10
20398;DHT22;10358;49.590;11.030;2023-02-28T11:14:22;4.40;65.00
20398;DHT22;10358;49.590;11.030;2023-02-28T11:16:51;4.40;65.00
20398;DHT22;10358;49.590;11.030;2023-02-28T11:19:22;4.30;65.20
20398;DHT22;10358;49.590;11.030;2023-02-28T11:21:57;4.30;66.00
20398;DHT22;10358;49.590;11.030;2023-02-28T11:24:44;4.40;66.00
20398;DHT22;10358;49.590;11.030;2023-02-28T11:27:45;4.60;65.50
20398;DHT22;10358;49.590;11.030;2023-02-28T11:30:38;4.70;65.40
20398;DHT22;10358;49.590;11.030;2023-02-28T11:39:33;4.70;64.90
20398;DHT22;10358;49.590;11.030;2023-02-28T11:50:51;4.90;63.30
20398;DHT22;10358;49.590;11.030;2023-02-28T11:56:10;4.90;63.70
20398;DHT22;10358;49.590;11.030;2023-02-28T12:05:11;5.00;63.50
20398;DHT22;10358;49.590;11.030;2023-02-28T12:07:56;5.10;62.90
20398;DHT22;10358;49.590;11.030;2023-02-28T12:10:28;5.10;63.90
20398;DHT22;10358;49.590;11.030;2023-02-28T12:13:16;5.10;62.80
20398;DHT22;10358;49.590;11.030;2023-02-28T12:16:12;5.20;62.50
20398;DHT22;10358;49.590;11.030;2023-02-28T12:24:33;5.40;61.90
20398;DHT22;10358;49.590;11.030;2023-02-28T12:27:09;5.50;62.00
20398;DHT22;10358;49.590;11.030;2023-02-28T12:29:54;5.50;61.70
20398;DHT22;10358;49.590;11.030;2023-02-28T12:32:27;5.60;60.90
20398;DHT22;10358;49.590;11.030;2023-02-28T12:35:02;5.60;61.00
20398;DHT22;10358;49.590;11.030;2023-02-28T12:40:56;5.80;61.60
20398;DHT22;10358;49.590;11.030;2023-02-28T12:43:31;5.80;61.20
20398;DHT22;10358;49.590;11.030;2023-02-28T12:46:23;5.80;61.10
20398;DHT22;10358;49.590;11.030;2023-02-28T12:48:55;5.90;61.20
20398;DHT22;10358;49.590;11.030;2023-02-28T12:51:22;6.00;60.20
20398;DHT22;10358;49.590;11.030;2023-02-28T12:56:40;6.20;60.20
20398;DHT22;10358;49.590;11.030;2023-02-28T13:01:51;6.40;59.80
20398;DHT22;10358;49.590;11.030;2023-02-28T13:05:10;6.50;59.50
20398;DHT22;10358;49.590;11.030;2023-02-28T13:08:03;6.50;58.80
20398;DHT22;10358;49.590;11.030;2023-02-28T13:10:44;6.50;58.40
20398;DHT22;10358;49.590;11.030;2023-02-28T13:13:18;6.50;58.50
20398;DHT22;10358;49.590;11.030;2023-02-28T13:18:31;6.60;58.50
20398;DHT22;10358;49.590;11.030;2023-02-28T13:20:58;6.50;58.40
20398;DHT22;10358;49.590;11.030;2023-02-28T13:23:59;6.50;57.80
20398;DHT22;10358;49.590;11.030;2023-02-28T13:40:00;7.20;57.30
20398;DHT22;10358;49.590;11.030;2023-02-28T13:42:36;7.20;56.80
20398;DHT22;10358;49.590;11.030;2023-02-28T13:56:07;8.00;55.90
20398;DHT22;10358;49.590;11.030;2023-02-28T14:04:21;7.70;55.40
20398;DHT22;10358;49.590;11.030;2023-02-28T14:06:53;7.90;55.30
20398;DHT22;10358;49.590;11.030;2023-02-28T14:09:33;8.10;55.40
20398;DHT22;10358;49.590;11.030;2023-02-28T14:15:04;8.30;54.60
20398;DHT22;10358;49.590;11.030;2023-02-28T14:17:31;8.40;54.70
20398;DHT22;10358;49.590;11.030;2023-02-28T14:19:57;8.60;54.40
20398;DHT22;10358;49.590;11.030;2023-02-28T14:22:53;8.80;53.50
20398;DHT22;10358;49.590;11.030;2023-02-28T14:31:07;8.60;52.60
20398;DHT22;10358;49.590;11.030;2023-02-28T14:36:31;8.60;52.90
20398;DHT22;10358;49.590;11.030;2023-02-28T14:39:00;8.60;52.60
20398;DHT22;10358;49.590;11.030;2023-02-28T14:41:35;8.40;52.60
20398;DHT22;10358;49.590;11.030;2023-02-28T14:46:42;8.50;52.90
20398;DHT22;10358;49.590;11.030;2023-02-28T14:49:32;8.50;52.90
20398;DHT22;10358;49.590;11.030;2023-02-28T14:52:15;8.60;53.10
20398;DHT22;10358;49.590;11.030;2023-02-28T14:54:43;8.50;52.80
20398;DHT22;10358;49.590;11.030;2023-02-28T14:57:33;8.60;52.40
20398;DHT22;10358;49.590;11.030;2023-02-28T15:00:26;8.60;52.60
20398;DHT22;10358;49.590;11.030;2023-02-28T15:02:52;8.70;52.60
20398;DHT22;10358;49.590;11.030;2023-02-28T15:05:30;8.70;52.90
20398;DHT22;10358;49.590;11.030;2023-02-28T15:10:29;8.90;52.10
20398;DHT22;10358;49.590;11.030;2023-02-28T15:13:01;8.80;51.30
20398;DHT22;10358;49.590;11.030;2023-02-28T15:15:35;8.70;52.00
20398;DHT22;10358;49.590;11.030;2023-02-28T15:18:05;8.70;52.40
20398;DHT22;10358;49.590;11.030;2023-02-28T15:20:33;8.70;52.30
20398;DHT22;10358;49.590;11.030;2023-02-28T15:23:00;8.80;51.90
20398;DHT22;10358;49.590;11.030;2023-02-28T15:25:26;8.90;51.60
20398;DHT22;10358;49.590;11.030;2023-02-28T15:27:54;8.60;51.60
20398;DHT22;10358;49.590;11.030;2023-02-28T15:30:27;8.50;52.00
20398;DHT22;10358;49.590;11.030;2023-02-28T15:33:16;8.60;52.00
20398;DHT22;10358;49.590;11.030;2023-02-28T15:35:42;8.60;52.50
20398;DHT22;10358;49.590;11.030;2023-02-28T15:40:53;8.70;52.50
20398;DHT22;10358;49.590;11.030;2023-02-28T15:43:28;8.80;52.80
20398;DHT22;10358;49.590;11.030;2023-02-28T15:46:07;9.00;52.10
20398;DHT22;10358;49.590;11.030;2023-02-28T15:48:53;8.90;52.50
20398;DHT22;10358;49.590;11.030;2023-02-28T15:51:25;8.60;51.60
20398;DHT22;10358;49.590;11.030;2023-02-28T15:54:00;8.50;52.70
20398;DHT22;10358;49.590;11.030;2023-02-28T15:56:29;8.50;52.80
20398;DHT22;10358;49.590;11.030;2023-02-28T15:58:57;8.40;52.20
20398;DHT22;10358;49.590;11.030;2023-02-28T16:01:26;8.20;52.60
20398;DHT22;10358;49.590;11.030;2023-02-28T16:03:54;8.30;53.00
20398;DHT22;10358;49.590;11.030;2023-02-28T16:06:36;8.30;52.60
20398;DHT22;10358;49.590;11.030;2023-02-28T16:09:03;8.20;53.50
20398;DHT22;10358;49.590;11.030;2023-02-28T16:11:29;8.00;53.80
20398;DHT22;10358;49.590;11.030;2023-02-28T16:13:56;7.80;54.00
20398;DHT22;10358;49.590;11.030;2023-02-28T16:16:24;7.50;54.40
20398;DHT22;10358;49.590;11.030;2023-02-28T16:18:50;7.40;54.80
20398;DHT22;10358;49.590;11.030;2023-02-28T16:21:16;7.30;55.10
20398;DHT22;10358;49.590;11.030;2023-02-28T16:23:41;7.00;55.20
20398;DHT22;10358;49.590;11.030;2023-02-28T16:26:08;6.80;55.80
20398;DHT22;10358;49.590;11.030;2023-02-28T16:28:38;6.60;56.40
20398;DHT22;10358;49.590;11.030;2023-02-28T16:31:06;6.50;57.00
20398;DHT22;10358;49.590;11.030;2023-02-28T16:33:34;6.30;57.20
20398;DHT22;10358;49.590;11.030;2023-02-28T16:36:00;6.10;57.80
20398;DHT22;10358;49.590;11.030;2023-02-28T16:38:26;5.90;58.30
20398;DHT22;10358;49.590;11.030;2023-02-28T16:40:57;5.90;58.60
20398;DHT22;10358;49.590;11.030;2023-02-28T16:43:24;5.80;58.90
20398;DHT22;10358;49.590;11.030;2023-02-28T16:45:55;5.80;59.10
20398;DHT22;10358;49.590;11.030;2023-02-28T16:48:22;5.60;59.70
20398;DHT22;10358;49.590;11.030;2023-02-28T16:50:47;5.50;59.90
20398;DHT22;10358;49.590;11.030;2023-02-28T16:53:13;5.40;60.30
20398;DHT22;10358;49.590;11.030;2023-02-28T16:55:38;5.20;60.50
20398;DHT22;10358;49.590;11.030;2023-02-28T16:58:04;5.10;61.00
20398;DHT22;10358;49.590;11.030;2023-02-28T17:00:31;5.10;61.40
20398;DHT22;10358;49.590;11.030;2023-02-28T17:02:57;5.00;61.70
20398;DHT22;10358;49.590;11.030;2023-02-28T17:05:24;4.90;62.00
20398;DHT22;10358;49.590;11.030;2023-02-28T17:07:51;4.80;62.20
20398;DHT22;10358;49.590;11.030;2023-02-28T17:10:22;4.70;62.50
20398;DHT22;10358;49.590;11.030;2023-02-28T17:12:48;4.60;62.80
20398;DHT22;10358;49.590;11.030;2023-02-28T17:15:16;4.50;63.20
20398;DHT22;10358;49.590;11.030;2023-02-28T17:17:43;4.40;63.60
20398;DHT22;10358;49.590;11.030;2023-02-28T17:20:18;4.30;63.90
20398;DHT22;10358;49.590;11.030;2023-02-28T17:22:44;4.20;64.10
20398;DHT22;10358;49.590;11.030;2023-02-28T17:25:10;4.10;64.40
20398;DHT22;10358;49.590;11.030;2023-02-28T17:27:36;3.90;64.70
20398;DHT22;10358;49.590;11.030;2023-02-28T17:32:35;3.70;65.60
20398;DHT22;10358;49.590;11.030;2023-02-28T17:35:01;3.50;67.10
20398;DHT22;10358;49.590;11.030;2023-02-28T17:37:26;3.50;72.40
20398;DHT22;10358;49.590;11.030;2023-02-28T17:39:52;3.60;71.00
20398;DHT22;10358;49.590;11.030;2023-02-28T17:42:17;3.50;69.30
20398;DHT22;10358;49.590;11.030;2023-02-28T17:44:43;3.30;69.00
20398;DHT22;10358;49.590;11.030;2023-02-28T17:47:11;3.10;69.20
20398;DHT22;10358;49.590;11.030;2023-02-28T17:49:37;3.00;69.60
20398;DHT22;10358;49.590;11.030;2023-02-28T17:52:02;2.90;69.80
20398;DHT22;10358;49.590;11.030;2023-02-28T17:54:28;2.80;69.90
20398;DHT22;10358;49.590;11.030;2023-02-28T17:56:53;2.70;70.00
20398;DHT22;10358;49.590;11.030;2023-02-28T17:59:19;2.60;70.40
20398;DHT22;10358;49.590;11.030;2023-02-28T18:01:45;2.50;70.50
20398;DHT22;10358;49.590;11.030;2023-02-28T18:04:10;2.40;70.70
20398;DHT22;10358;49.590;11.030;2023-02-28T18:06:44;2.30;71.30
20398;DHT22;10358;49.590;11.030;2023-02-28T18:09:20;2.30;71.80
20398;DHT22;10358;49.590;11.030;2023-02-28T18:11:54;2.10;71.90
20398;DHT22;10358;49.590;11.030;2023-02-28T18:14:21;2.00;72.30
20398;DHT22;10358;49.590;11.030;2023-02-28T18:16:48;2.00;72.40
20398;DHT22;10358;49.590;11.030;2023-02-28T18:19:15;1.80;73.00